Time;durP1;ratioP1;P1;durP2;ratioP2;P2;SDS_P1;SDS_P2;PMS_P1;PMS_P2;Temp;Humidity;BMP_temperature;BMP_pressure;BME280_temperature;BME280_humidity;BME280_pressure;Samples;Min_cycle;Max_cycle;Signal;HPM_P1;HPM_P2
2022/04/16 00:02:20;;;;;;;32.20;7.10;;;;;;;10.08;100.00;102346.66;5071004;28;20053;-82
2022/04/16 00:04:47;;;;;;;30.67;6.95;;;;;;;10.14;100.00;102323.94;5070268;28;20131;-82
2022/04/16 00:07:14;;;;;;;30.27;6.30;;;;;;;10.13;100.00;102336.16;5072851;28;20053;-83
2022/04/16 00:09:42;;;;;;;26.23;5.45;;;;;;;10.45;100.00;102332.34;5071667;28;20044;-82
2022/04/16 00:12:09;;;;;;;20.05;5.55;;;;;;;10.64;100.00;102331.25;5072068;28;20057;-82
2022/04/16 00:14:38;;;;;;;18.67;4.82;;;;;;;10.71;100.00;102333.78;5070434;28;20049;-82
2022/04/16 00:17:06;;;;;;;32.67;6.30;;;;;;;10.35;100.00;102330.72;5058564;28;20052;-83
2022/04/16 00:19:33;;;;;;;30.98;6.63;;;;;;;10.52;100.00;102347.13;5059334;28;20153;-82
2022/04/16 00:22:00;;;;;;;34.30;7.07;;;;;;;10.31;100.00;102356.06;5071115;28;20048;-82
2022/04/16 00:24:28;;;;;;;31.23;7.18;;;;;;;10.21;100.00;102343.91;5071159;28;20144;-82
2022/04/16 00:26:55;;;;;;;24.58;5.93;;;;;;;10.25;100.00;102341.28;5069127;28;20597;-82
2022/04/16 00:29:22;;;;;;;30.17;6.25;;;;;;;9.92;100.00;102312.81;5057238;28;20082;-82
2022/04/16 00:31:49;;;;;;;25.58;6.78;;;;;;;9.70;100.00;102302.53;5061973;28;20059;-82
2022/04/16 00:34:15;;;;;;;26.80;5.95;;;;;;;10.06;100.00;102348.44;5061035;28;20098;-82
2022/04/16 00:36:43;;;;;;;34.63;6.38;;;;;;;10.10;100.00;102349.28;5058146;28;20056;-82
2022/04/16 00:39:10;;;;;;;26.77;5.97;;;;;;;10.63;100.00;102347.84;5069974;28;20045;-82
2022/04/16 00:41:39;;;;;;;26.15;7.50;;;;;;;10.38;100.00;102343.78;5072564;28;20482;-82
2022/04/16 00:44:06;;;;;;;24.60;6.65;;;;;;;10.20;100.00;102329.13;5071627;28;20052;-82
2022/04/16 00:46:34;;;;;;;24.42;6.35;;;;;;;10.14;100.00;102345.72;5071096;28;20142;-82
2022/04/16 00:49:01;;;;;;;37.20;6.63;;;;;;;9.96;100.00;102331.06;5070423;28;20470;-82
2022/04/16 00:51:29;;;;;;;23.35;5.78;;;;;;;10.33;100.00;102324.66;5071251;28;20056;-82
2022/04/16 00:53:56;;;;;;;23.45;5.93;;;;;;;10.13;100.00;102330.94;5054647;28;20060;-82
2022/04/16 00:56:23;;;;;;;36.42;7.47;;;;;;;10.01;100.00;102315.34;5062744;28;20052;-82
2022/04/16 00:58:50;;;;;;;32.13;6.97;;;;;;;10.11;100.00;102343.16;5060790;28;20055;-82
2022/04/16 01:01:17;;;;;;;33.03;6.43;;;;;;;10.00;100.00;102343.25;5056989;28;20052;-82
2022/04/16 01:03:45;;;;;;;27.52;5.93;;;;;;;10.44;100.00;102323.63;5072480;28;20413;-82
2022/04/16 01:06:14;;;;;;;34.72;7.15;;;;;;;9.95;100.00;102325.84;5070586;28;20051;-82
2022/04/16 01:08:44;;;;;;;33.17;7.55;;;;;;;9.90;100.00;102312.84;5072014;28;20045;-82
2022/04/16 01:11:12;;;;;;;30.00;7.97;;;;;;;10.23;100.00;102329.06;5059668;28;20088;-82
2022/04/16 01:13:39;;;;;;;29.92;5.60;;;;;;;10.30;100.00;102353.44;5056717;28;20040;-82
2022/04/16 01:16:06;;;;;;;22.35;5.70;;;;;;;10.10;100.00;102337.94;5071822;28;20056;-82
2022/04/16 01:18:34;;;;;;;26.63;5.40;;;;;;;10.11;100.00;102332.69;5070864;28;20404;-82
2022/04/16 01:21:04;;;;;;;27.90;5.82;;;;;;;10.24;100.00;102330.81;5069942;28;20049;-82
2022/04/16 01:23:30;;;;;;;24.42;6.18;;;;;;;10.26;100.00;102335.13;5071825;28;20050;-82
2022/04/16 01:25:57;;;;;;;29.60;6.47;;;;;;;10.19;100.00;102341.31;5072411;28;20131;-82
2022/04/16 01:28:24;;;;;;;35.08;6.38;;;;;;;10.25;100.00;102333.41;5070022;28;20045;-82
2022/04/16 01:30:51;;;;;;;26.52;6.07;;;;;;;10.50;100.00;102343.66;5068824;28;20486;-82
2022/04/16 01:33:17;;;;;;;33.22;7.97;;;;;;;10.31;100.00;102347.31;5071021;28;20048;-82
2022/04/16 01:35:44;;;;;;;39.47;7.40;;;;;;;10.13;100.00;102346.63;5071376;28;20067;-82
2022/04/16 01:38:11;;;;;;;32.55;6.53;;;;;;;10.31;100.00;102329.00;5069795;28;20053;-82
2022/04/16 01:40:38;;;;;;;33.90;8.07;;;;;;;10.29;100.00;102342.09;5066789;28;20049;-82
2022/04/16 01:43:05;;;;;;;32.47;6.03;;;;;;;10.41;100.00;102333.25;5052523;28;20053;-82
2022/04/16 01:45:33;;;;;;;29.98;6.95;;;;;;;10.43;100.00;102331.53;5050287;28;20041;-82
2022/04/16 01:48:01;;;;;;;27.52;6.38;;;;;;;10.34;100.00;102329.88;5065419;28;20063;-82
2022/04/16 01:50:28;;;;;;;33.53;6.28;;;;;;;9.48;100.00;102263.50;5071470;28;20497;-82
2022/04/16 01:52:55;;;;;;;28.58;6.18;;;;;;;9.94;100.00;102285.75;5070982;28;20101;-82
2022/04/16 01:55:22;;;;;;;38.70;6.57;;;;;;;10.06;100.00;102283.00;5071790;28;20483;-82
2022/04/16 01:57:50;;;;;;;35.35;7.05;;;;;;;10.39;100.00;102288.78;5070694;28;20054;-82
2022/04/16 02:00:19;;;;;;;35.05;7.70;;;;;;;10.61;100.00;102292.00;5062578;28;20060;-81
2022/04/16 02:02:46;;;;;;;38.55;7.57;;;;;;;10.41;100.00;102309.69;5070377;28;20502;-82
2022/04/16 02:05:13;;;;;;;26.95;6.80;;;;;;;10.18;100.00;102305.56;5070393;28;20559;-82
2022/04/16 02:07:40;;;;;;;30.77;5.65;;;;;;;10.30;100.00;102295.84;5070301;28;20059;-82
2022/04/16 02:10:08;;;;;;;31.02;6.85;;;;;;;10.47;100.00;102312.25;5070286;28;20044;-82
2022/04/16 02:12:39;;;;;;;31.10;6.18;;;;;;;10.47;100.00;102303.53;5070144;28;20076;-82
2022/04/16 02:15:06;;;;;;;26.23;6.88;;;;;;;10.42;100.00;102330.63;5069436;28;20050;-82
2022/04/16 02:17:33;;;;;;;32.30;6.68;;;;;;;9.86;100.00;102319.84;5070023;28;20421;-82
2022/04/16 02:20:00;;;;;;;28.70;6.45;;;;;;;10.36;100.00;102322.84;5068698;28;20055;-82
2022/04/16 02:22:37;;;;;;;29.10;6.68;;;;;;;10.23;100.00;102315.97;5071341;28;20052;-82
2022/04/16 02:25:05;;;;;;;24.65;5.70;;;;;;;10.42;100.00;102316.69;5070208;28;20045;-82
2022/04/16 02:27:34;;;;;;;22.95;5.03;;;;;;;10.52;100.00;102314.84;5069784;28;20051;-82
2022/04/16 02:30:06;;;;;;;26.27;5.10;;;;;;;10.59;100.00;102319.09;5062204;28;20044;-82
2022/04/16 02:32:38;;;;;;;25.50;4.63;;;;;;;10.80;100.00;102320.56;5049776;28;20061;-82
2022/04/16 02:35:06;;;;;;;33.33;7.45;;;;;;;10.43;100.00;102342.00;5063770;28;20059;-82
2022/04/16 02:37:34;;;;;;;28.45;6.05;;;;;;;10.57;100.00;102326.09;5089512;28;20052;-82
2022/04/16 02:40:01;;;;;;;23.50;4.97;;;;;;;10.56;100.00;102343.56;5080194;28;20586;-82
2022/04/16 02:42:28;;;;;;;18.05;4.53;;;;;;;10.81;100.00;102354.59;5052501;28;20160;-82
2022/04/16 02:47:40;;;;;;;33.78;6.70;;;;;;;10.31;100.00;102342.09;5065536;28;20053;-82
2022/04/16 02:50:07;;;;;;;31.70;8.00;;;;;;;10.49;100.00;102346.28;5068767;28;20087;-82
2022/04/16 02:52:34;;;;;;;28.17;5.93;;;;;;;10.26;100.00;102318.56;5071381;28;20405;-82
2022/04/16 02:55:03;;;;;;;31.90;6.70;;;;;;;10.10;100.00;102338.81;5071386;28;20494;-82
2022/04/16 02:57:33;;;;;;;14.35;4.07;;;;;;;10.42;100.00;102345.47;5071118;28;20044;-82
2022/04/16 03:00:00;;;;;;;45.22;9.90;;;;;;;10.27;100.00;102349.09;5068596;28;20063;-82
2022/04/16 03:02:33;;;;;;;23.00;4.85;;;;;;;10.45;100.00;102341.06;5070100;28;20094;-82
2022/04/16 03:04:59;;;;;;;19.35;4.82;;;;;;;10.50;100.00;102335.78;5070390;28;20058;-82
2022/04/16 03:07:27;;;;;;;24.75;4.53;;;;;;;10.57;100.00;102334.84;5070263;28;20478;-82
2022/04/16 03:09:53;;;;;;;16.10;4.18;;;;;;;11.00;100.00;102350.00;5070105;28;20060;-82
2022/04/16 03:12:20;;;;;;;35.50;8.65;;;;;;;10.83;100.00;102331.00;5071479;28;20405;-82
2022/04/16 03:17:32;;;;;;;26.30;6.38;;;;;;;10.76;100.00;102316.25;5074221;28;20053;-82
2022/04/16 03:19:59;;;;;;;28.40;8.02;;;;;;;10.60;100.00;102320.81;5072169;28;20415;-82
2022/04/16 03:22:26;;;;;;;23.65;5.97;;;;;;;10.29;100.00;102320.28;5073027;28;20045;-83
2022/04/16 03:24:53;;;;;;;21.88;5.32;;;;;;;10.71;100.00;102320.69;5073439;28;20123;-82
2022/04/16 03:27:19;;;;;;;18.08;4.60;;;;;;;10.59;100.00;102322.59;5073069;28;20044;-82
2022/04/16 03:29:46;;;;;;;26.23;5.38;;;;;;;10.85;100.00;102316.13;5067225;28;20049;-82
2022/04/16 03:32:13;;;;;;;22.45;6.32;;;;;;;10.56;100.00;102291.19;5086597;28;20057;-82
2022/04/16 03:34:40;;;;;;;18.20;4.47;;;;;;;10.70;100.00;102303.25;5072607;28;20482;-82
2022/04/16 03:37:07;;;;;;;29.75;6.63;;;;;;;10.82;100.00;102318.81;5072704;28;20049;-83
2022/04/16 03:39:34;;;;;;;26.70;5.95;;;;;;;10.73;100.00;102285.75;5072834;28;20398;-82
2022/04/16 03:42:00;;;;;;;28.58;7.78;;;;;;;10.46;100.00;102307.88;5058117;28;20048;-82
2022/04/16 03:44:27;;;;;;;29.30;7.35;;;;;;;10.90;100.00;102337.03;5052960;28;20061;-82
2022/04/16 03:46:54;;;;;;;36.38;7.38;;;;;;;10.48;100.00;102337.53;5086282;28;20051;-82
2022/04/16 03:49:21;;;;;;;27.80;6.60;;;;;;;10.33;100.00;102345.59;5090684;28;20044;-82
2022/04/16 03:51:48;;;;;;;30.52;7.82;;;;;;;10.44;100.00;102348.94;5072424;28;20052;-82
2022/04/16 04:00:00;;;;;;;33.05;7.85;;;;;;;10.36;100.00;102369.97;5073604;28;20040;-81
2022/04/16 04:02:30;;;;;;;24.65;5.30;;;;;;;10.18;100.00;102323.00;5072674;28;20071;-83
2022/04/16 04:04:57;;;;;;;43.67;9.30;;;;;;;10.00;100.00;102313.59;5072162;28;20060;-81
2022/04/16 04:07:25;;;;;;;26.25;7.57;;;;;;;10.07;100.00;102324.00;5072467;28;20083;-81
2022/04/16 04:09:53;;;;;;;33.50;8.00;;;;;;;9.84;100.00;102339.03;5072252;28;20051;-80
2022/04/16 04:12:20;;;;;;;29.02;5.85;;;;;;;9.79;100.00;102314.66;5072613;28;20135;-81
2022/04/16 04:14:47;;;;;;;34.10;7.00;;;;;;;10.13;100.00;102314.34;5072031;28;20056;-80
2022/04/16 04:17:14;;;;;;;36.00;9.48;;;;;;;9.81;100.00;102307.66;5073543;28;20044;-81
2022/04/16 04:19:44;;;;;;;33.53;8.40;;;;;;;9.56;100.00;102325.31;5071893;28;20041;-81
2022/04/16 04:22:12;;;;;;;46.72;9.45;;;;;;;9.57;100.00;102307.00;5071794;28;20045;-82
2022/04/16 04:24:40;;;;;;;34.03;8.27;;;;;;;9.44;100.00;102315.84;5071742;28;20105;-82
2022/04/16 04:27:07;;;;;;;39.97;8.70;;;;;;;9.80;100.00;102291.13;5072902;28;20060;-83
2022/04/16 04:29:36;;;;;;;44.28;8.93;;;;;;;9.74;100.00;102309.50;5070955;28;20045;-82
2022/04/16 04:32:04;;;;;;;44.28;7.80;;;;;;;9.80;100.00;102313.81;5090056;28;20052;-82
2022/04/16 04:34:31;;;;;;;32.97;8.30;;;;;;;10.03;100.00;102303.97;5083103;28;20413;-82
2022/04/16 04:36:58;;;;;;;41.67;10.07;;;;;;;9.82;100.00;102330.34;5051675;28;20135;-82
2022/04/16 04:39:25;;;;;;;35.90;8.00;;;;;;;9.88;100.00;102320.69;5057032;28;20045;-83
2022/04/16 04:41:52;;;;;;;29.10;7.00;;;;;;;9.86;100.00;102291.06;5072479;28;20051;-82
2022/04/16 04:44:19;;;;;;;33.88;6.90;;;;;;;9.70;100.00;102279.00;5071694;28;20387;-82
2022/04/16 04:46:51;;;;;;;48.53;10.98;;;;;;;10.07;100.00;102321.41;5071893;28;20488;-83
2022/04/16 04:49:19;;;;;;;30.90;8.38;;;;;;;10.18;100.00;102307.31;5071193;28;20083;-82
2022/04/16 04:51:45;;;;;;;30.08;8.25;;;;;;;9.87;100.00;102274.47;5071547;28;20071;-82
2022/04/16 04:54:12;;;;;;;48.38;10.18;;;;;;;9.79;100.00;102312.94;5072272;28;20044;-82
2022/04/16 04:56:39;;;;;;;36.33;8.55;;;;;;;9.54;100.00;102275.66;5071205;28;20135;-82
2022/04/16 04:59:06;;;;;;;28.60;7.85;;;;;;;9.96;100.00;102304.06;5070508;28;20131;-82
2022/04/16 05:01:33;;;;;;;25.25;6.95;;;;;;;9.93;100.00;102323.25;5072176;28;20048;-82
2022/04/16 05:04:00;;;;;;;33.33;8.15;;;;;;;9.49;100.00;102294.00;5071202;28;20060;-82
2022/04/16 05:06:27;;;;;;;25.35;7.00;;;;;;;9.95;100.00;102324.13;5071494;28;20040;-80
2022/04/16 05:08:53;;;;;;;30.25;6.55;;;;;;;10.21;100.00;102320.38;5069731;28;20052;-81
2022/04/16 05:11:20;;;;;;;24.02;6.32;;;;;;;10.23;100.00;102324.72;5054287;28;20398;-84
2022/04/16 05:13:47;;;;;;;28.17;7.78;;;;;;;10.07;100.00;102338.81;5052050;28;20059;-83
2022/04/16 05:16:14;;;;;;;22.65;6.55;;;;;;;10.38;100.00;102328.94;5071329;28;20059;-82
2022/04/16 05:18:41;;;;;;;24.40;6.65;;;;;;;10.47;100.00;102341.06;5070766;28;20075;-81
2022/04/16 05:21:08;;;;;;;36.92;9.70;;;;;;;10.25;100.00;102341.28;5070321;28;20047;-81
2022/04/16 05:23:39;;;;;;;30.95;9.20;;;;;;;10.14;100.00;102316.09;5068677;28;20059;-82
2022/04/16 05:26:08;;;;;;;36.97;8.88;;;;;;;9.76;100.00;102318.19;5069860;28;20600;-81
2022/04/16 05:28:39;;;;;;;43.78;9.00;;;;;;;9.86;100.00;102321.56;5069559;28;20549;-82
2022/04/16 05:31:07;;;;;;;36.70;8.02;;;;;;;10.14;100.00;102329.16;5069296;28;20051;-82
2022/04/16 05:36:20;;;;;;;45.47;11.65;;;;;;;9.79;100.00;102314.66;5064082;28;20051;-82
2022/04/16 05:38:47;;;;;;;45.72;10.23;;;;;;;9.78;100.00;102333.88;5063736;28;20052;-82
2022/04/16 05:41:14;;;;;;;30.80;8.48;;;;;;;9.95;100.00;102304.94;5062884;28;20062;-82
2022/04/16 05:43:42;;;;;;;39.03;8.85;;;;;;;9.67;100.00;102334.84;5059110;28;20123;-82
2022/04/16 05:46:09;;;;;;;44.20;9.50;;;;;;;9.62;100.00;102335.75;5062871;28;20185;-83
2022/04/16 05:48:36;;;;;;;31.73;7.35;;;;;;;9.85;100.00;102336.41;5058094;28;20056;-83
2022/04/16 05:51:03;;;;;;;35.33;10.45;;;;;;;9.95;100.00;102324.13;5058024;28;20049;-82
2022/04/16 05:53:31;;;;;;;32.22;8.10;;;;;;;9.95;100.00;102323.25;5063370;28;20364;-83
2022/04/16 05:55:59;;;;;;;47.03;10.88;;;;;;;9.68;100.00;102335.69;5062350;28;20483;-83
2022/04/16 05:58:26;;;;;;;38.40;10.57;;;;;;;9.75;100.00;102337.38;5058888;28;20053;-82
2022/04/16 06:00:54;;;;;;;30.35;9.13;;;;;;;9.96;100.00;102325.84;5065860;28;20048;-82
2022/04/16 06:03:20;;;;;;;43.13;10.50;;;;;;;10.06;100.00;102331.88;5058499;28;20055;-82
2022/04/16 06:05:48;;;;;;;38.90;10.63;;;;;;;10.18;100.00;102323.91;5059528;28;20053;-82
2022/04/16 06:08:14;;;;;;;29.58;10.02;;;;;;;9.86;100.00;102330.31;5064701;28;20053;-82
2022/04/16 06:10:41;;;;;;;41.67;9.95;;;;;;;9.63;100.00;102329.63;5056734;28;20060;-82
2022/04/16 06:13:10;;;;;;;44.58;10.43;;;;;;;9.89;100.00;102332.03;5056841;28;20052;-82
2022/04/16 06:15:43;;;;;;;28.70;7.30;;;;;;;10.43;100.00;102342.00;5058770;28;20056;-82
2022/04/16 06:18:11;;;;;;;31.52;7.50;;;;;;;10.32;100.00;102334.22;5076200;28;20049;-82
2022/04/16 06:20:38;;;;;;;30.73;7.78;;;;;;;10.31;100.00;102315.91;5066229;28;20401;-84
2022/04/16 06:23:05;;;;;;;38.53;8.70;;;;;;;10.64;100.00;102323.41;5059465;28;20540;-84
2022/04/16 06:25:33;;;;;;;28.17;7.30;;;;;;;10.31;100.00;102332.50;5066978;28;20064;-84
2022/04/16 06:28:00;;;;;;;33.15;8.52;;;;;;;10.02;100.00;102323.19;5063868;28;20044;-84
2022/04/16 06:30:27;;;;;;;28.20;7.10;;;;;;;9.95;100.00;102318.91;5062800;28;20121;-84
2022/04/16 06:32:54;;;;;;;27.02;6.72;;;;;;;10.35;100.00;102351.66;5059153;28;20081;-83
2022/04/16 06:35:22;;;;;;;40.67;11.52;;;;;;;9.87;100.00;102292.78;5060150;28;20048;-84
2022/04/16 06:37:48;;;;;;;30.33;8.90;;;;;;;9.99;100.00;102312.75;5061907;28;20497;-83
2022/04/16 06:40:15;;;;;;;22.17;6.15;;;;;;;10.52;100.00;102322.69;5061760;28;20390;-83
2022/04/16 06:42:42;;;;;;;29.42;7.43;;;;;;;10.51;100.00;102318.31;5062246;28;20401;-83
2022/04/16 06:45:11;;;;;;;45.78;10.70;;;;;;;9.96;100.00;102340.69;5059706;28;20084;-83
2022/04/16 06:47:38;;;;;;;26.30;7.65;;;;;;;10.42;100.00;102342.88;5062227;28;20068;-83
2022/04/16 06:50:07;;;;;;;21.00;5.28;;;;;;;10.76;100.00;102340.69;5061791;28;20052;-83
2022/04/16 06:52:34;;;;;;;33.55;8.63;;;;;;;10.73;100.00;102325.03;5063168;28;20101;-83
2022/04/16 06:55:01;;;;;;;23.30;5.57;;;;;;;10.79;100.00;102327.56;5061022;28;20119;-83
2022/04/16 06:57:28;;;;;;;24.45;5.95;;;;;;;11.00;100.00;102346.50;5071941;28;20049;-83
2022/04/16 07:00:01;;;;;;;21.30;5.68;;;;;;;10.80;100.00;102333.66;5073603;28;20044;-84
2022/04/16 07:02:28;;;;;;;25.48;6.00;;;;;;;10.88;100.00;102338.81;5074047;28;20055;-84
2022/04/16 07:04:58;;;;;;;32.88;8.13;;;;;;;10.46;100.00;102341.94;5074612;28;20470;-82
2022/04/16 07:07:24;;;;;;;41.38;9.52;;;;;;;10.51;100.00;102350.59;5059052;28;20053;-82
2022/04/16 07:09:51;;;;;;;38.67;8.10;;;;;;;10.37;100.00;102335.03;5062185;28;20049;-83
2022/04/16 07:12:18;;;;;;;28.83;8.13;;;;;;;10.64;100.00;102338.22;5068683;28;20048;-82
2022/04/16 07:14:45;;;;;;;32.63;7.88;;;;;;;10.53;100.00;102312.16;5053442;28;20647;-82
2022/04/16 07:17:18;;;;;;;;;;;;;;;10.93;100.00;102358.81;5054265;28;20045;-83
2022/04/16 07:19:45;;;;;;;32.90;9.20;;;;;;;10.78;100.00;102348.53;5061138;28;19920;-83
2022/04/16 07:22:11;;;;;;;27.75;7.93;;;;;;;10.61;100.00;102335.66;5067161;28;20049;-83
2022/04/16 07:24:41;;;;;;;26.25;6.85;;;;;;;10.52;100.00;102307.84;5070310;28;20137;-83
2022/04/16 07:27:08;;;;;;;30.70;8.35;;;;;;;10.75;100.00;102338.13;5074142;28;20139;-83
2022/04/16 07:29:35;;;;;;;25.52;8.02;;;;;;;10.99;100.00;102339.53;5074160;28;20485;-83
2022/04/16 07:32:02;;;;;;;40.08;11.52;;;;;;;10.80;100.00;102339.78;5073659;28;20135;-84
2022/04/16 07:34:29;;;;;;;34.67;10.10;;;;;;;10.39;100.00;102338.53;5073219;28;20460;-84
2022/04/16 07:36:56;;;;;;;30.60;9.50;;;;;;;10.53;100.00;102350.59;5072926;28;20049;-83
2022/04/16 07:39:22;;;;;;;32.45;9.20;;;;;;;10.44;100.00;102335.84;5067519;28;20062;-83
2022/04/16 07:41:51;;;;;;;19.92;5.82;;;;;;;10.69;100.00;102339.03;5098157;28;20055;-84
2022/04/16 07:44:18;;;;;;;37.72;8.80;;;;;;;10.79;100.00;102339.81;5067085;28;20457;-83
2022/04/16 07:46:45;;;;;;;27.63;8.88;;;;;;;10.74;100.00;102328.50;5072955;28;20053;-84
2022/04/16 07:49:12;;;;;;;35.00;9.90;;;;;;;10.56;100.00;102324.38;5072668;28;20051;-84
2022/04/16 07:51:42;;;;;;;32.22;10.40;;;;;;;10.73;100.00;102338.13;5073525;28;20055;-83
2022/04/16 07:54:09;;;;;;;39.10;12.15;;;;;;;10.45;100.00;102324.50;5073698;28;20051;-84
2022/04/16 07:56:36;;;;;;;48.50;10.73;;;;;;;10.42;100.00;102306.19;5069032;28;20053;-84
2022/04/16 07:59:03;;;;;;;30.92;9.93;;;;;;;10.62;100.00;102332.13;5070636;28;20056;-84
2022/04/16 08:01:30;;;;;;;43.88;12.52;;;;;;;10.88;100.00;102316.09;5072815;28;20044;-83
2022/04/16 08:03:57;;;;;;;35.95;10.18;;;;;;;10.91;100.00;102321.28;5072696;28;20051;-83
2022/04/16 08:06:23;;;;;;;31.52;9.50;;;;;;;10.93;100.00;102316.03;5072791;28;20044;-83
2022/04/16 08:08:50;;;;;;;32.42;10.32;;;;;;;10.96;100.00;102315.97;5071861;28;20064;-83
2022/04/16 08:11:17;;;;;;;40.38;11.57;;;;;;;10.87;100.00;102309.13;5062873;28;20137;-83
2022/04/16 08:13:44;;;;;;;44.80;13.13;;;;;;;10.50;100.00;102309.59;5052079;28;20519;-83
2022/04/16 08:16:11;;;;;;;45.20;12.85;;;;;;;10.42;100.00;102303.59;5072011;28;20054;-84
2022/04/16 08:18:38;;;;;;;52.03;13.27;;;;;;;10.30;100.00;102301.06;5073789;28;20464;-84
2022/04/16 08:21:05;;;;;;;34.58;10.80;;;;;;;10.73;100.00;102335.50;5072264;28;20054;-83
2022/04/16 08:23:33;;;;;;;43.70;13.80;;;;;;;10.86;100.00;102322.25;5072891;28;20044;-84
2022/04/16 08:26:00;;;;;;;34.33;11.77;;;;;;;10.94;100.00;102292.44;5072920;28;20060;-83
2022/04/16 08:28:27;;;;;;;26.83;8.02;;;;;;;11.23;100.00;102292.91;5072022;28;20036;-84
2022/04/16 08:30:54;;;;;;;22.98;7.18;;;;;;;11.28;100.00;102298.91;5071809;28;20052;-84
2022/04/16 08:33:22;;;;;;;30.63;9.93;;;;;;;11.20;100.00;102328.72;5072040;28;20046;-83
2022/04/16 08:35:49;;;;;;;41.92;12.73;;;;;;;10.97;100.00;102341.31;5072021;28;20053;-83
2022/04/16 08:38:16;;;;;;;51.22;13.75;;;;;;;10.49;100.00;102281.66;5071306;28;20496;-83
2022/04/16 08:40:43;;;;;;;49.28;14.65;;;;;;;10.81;100.00;102303.97;5070931;28;20054;-84
2022/04/16 08:43:13;;;;;;;41.70;12.57;;;;;;;11.06;100.00;102340.31;5071648;28;20516;-83
2022/04/16 08:45:40;;;;;;;53.90;13.18;;;;;;;10.37;100.00;102335.03;5072609;28;20131;-83
2022/04/16 08:48:08;;;;;;;31.17;9.60;;;;;;;11.02;100.00;102332.50;5064243;28;20410;-84
2022/04/16 08:50:36;;;;;;;37.90;12.93;;;;;;;11.01;100.00;102340.38;5067185;28;20044;-83
2022/04/16 08:53:03;;;;;;;41.08;12.77;;;;;;;11.21;100.00;102338.34;5071872;28;20127;-83
2022/04/16 08:55:30;;;;;;;40.40;13.00;;;;;;;11.42;100.00;102331.06;5063691;28;20132;-83
2022/04/16 08:57:57;;;;;;;40.60;13.23;;;;;;;11.10;100.00;102342.88;5071440;28;20080;-84
2022/04/16 09:00:24;;;;;;;46.78;15.68;;;;;;;10.86;100.00;102330.97;5070672;28;20057;-84
2022/04/16 09:02:56;;;;;;;50.55;17.13;;;;;;;11.04;100.00;102332.47;5071097;28;20048;-84
2022/04/16 09:05:28;;;;;;;41.75;13.38;;;;;;;11.05;100.00;102339.47;5070876;28;20106;-84
2022/04/16 09:07:56;;;;;;;43.03;14.70;;;;;;;11.12;100.00;102338.47;5069855;28;20051;-84
2022/04/16 09:10:30;;;;;;;44.88;16.17;;;;;;;10.96;100.00;102331.69;5069418;28;20520;-84
2022/04/16 09:12:59;;;;;;;45.15;18.45;;;;;;;10.91;100.00;102328.31;5055321;28;20071;-84
2022/04/16 09:15:27;;;;;;;43.00;15.25;;;;;;;11.13;100.00;102350.69;5101429;28;20475;-84
2022/04/16 09:17:57;;;;;;;35.17;13.50;;;;;;;11.08;100.00;102326.28;5071310;28;20693;-84
2022/04/16 09:20:39;;;;;;;50.40;17.63;;;;;;;10.59;100.00;102343.53;5071048;28;20045;-83
2022/04/16 09:23:20;;;;;;;42.35;15.65;;;;;;;10.89;100.00;102330.94;5072364;28;20407;-84
2022/04/16 09:25:48;;;;;;;34.30;13.45;;;;;;;11.05;100.00;102338.56;5064095;28;20576;-84
2022/04/16 09:28:17;;;;;;;36.45;15.43;;;;;;;11.34;100.00;102327.66;5070317;28;20375;-84
2022/04/16 09:30:49;;;;;;;32.95;14.82;;;;;;;11.26;100.00;102332.16;5070429;28;20056;-84
2022/04/16 09:33:17;;;;;;;44.88;17.58;;;;;;;11.00;100.00;102336.03;5058603;28;20052;-84
2022/04/16 09:35:47;;;;;;;40.65;13.38;;;;;;;10.85;100.00;102338.84;5070018;28;20144;-84
2022/04/16 09:38:14;;;;;;;28.95;11.60;;;;;;;11.29;100.00;102342.59;5070645;28;20114;-84
2022/04/16 09:40:46;;;;;;;31.38;13.45;;;;;;;11.14;100.00;102339.31;5062945;28;20076;-84
2022/04/16 09:43:13;;;;;;;32.88;14.80;;;;;;;10.91;100.00;102342.25;5069092;28;20474;-84
2022/04/16 09:45:41;;;;;;;31.27;12.70;;;;;;;11.01;100.00;102301.06;5070320;28;20056;-84
2022/04/16 09:48:11;;;;;;;37.03;12.93;;;;;;;10.91;100.00;102342.25;5070806;28;20048;-85
2022/04/16 09:50:40;;;;;;;30.50;12.05;;;;;;;11.39;100.00;102342.44;5075571;28;20102;-86
2022/04/16 09:53:07;;;;;;;45.28;18.48;;;;;;;11.00;100.00;102343.91;5070606;28;20555;-86
2022/04/16 09:55:36;;;;;;;46.45;16.50;;;;;;;10.92;100.00;102309.06;5070782;28;20055;-85
2022/04/16 09:58:07;;;;;;;52.40;20.17;;;;;;;11.05;100.00;102331.59;5070966;28;20053;-85
2022/04/16 10:00:36;;;;;;;51.45;20.15;;;;;;;11.00;100.00;102342.13;5071064;28;20047;-85
2022/04/16 10:03:23;;;;;;;45.90;17.08;;;;;;;11.36;100.00;102304.91;5066822;28;20044;-85
2022/04/16 10:05:51;;;;;;;42.70;17.65;;;;;;;11.17;100.00;102313.06;5069194;28;20414;-85
2022/04/16 10:08:19;;;;;;;45.30;17.48;;;;;;;11.39;100.00;102328.47;5071700;28;20460;-85
2022/04/16 10:10:53;;;;;;;49.97;21.55;;;;;;;11.22;100.00;102320.84;5057386;28;20136;-85
2022/04/16 10:13:22;;;;;;;51.45;18.35;;;;;;;11.31;100.00;102331.19;5064560;28;20070;-85
2022/04/16 10:16:01;;;;;;;42.22;19.75;;;;;;;11.69;100.00;102336.75;5050583;28;20048;-85
2022/04/16 10:18:28;;;;;;;57.63;19.70;;;;;;;11.07;100.00;102321.09;5051078;28;20118;-85
2022/04/16 10:20:57;;;;;;;45.83;17.98;;;;;;;11.56;100.00;102323.81;5069326;28;20055;-84
2022/04/16 10:23:25;;;;;;;51.78;20.60;;;;;;;11.42;100.00;102327.53;5061277;28;20048;-85
2022/04/16 10:26:04;;;;;;;43.38;17.88;;;;;;;11.49;100.00;102311.69;5073363;28;20044;-84
2022/04/16 10:28:35;;;;;;;54.47;18.90;;;;;;;11.13;100.00;102318.38;5074149;28;20040;-84
2022/04/16 10:31:02;;;;;;;50.88;16.83;;;;;;;11.44;100.00;102318.78;5075123;28;20478;-85
2022/04/16 10:33:31;;;;;;;39.85;14.85;;;;;;;11.71;100.00;102325.31;5073457;28;20127;-85
2022/04/16 10:36:03;;;;;;;56.50;19.52;;;;;;;11.54;100.00;102328.22;5073738;28;20055;-85
2022/04/16 10:38:38;;;;;;;60.53;20.50;;;;;;;11.25;100.00;102320.81;5068949;28;20080;-85
2022/04/16 10:41:19;;;;;;;49.60;19.17;;;;;;;11.24;100.00;102333.94;5102382;28;20044;-85
2022/04/16 10:44:00;;;;;;;56.15;19.98;;;;;;;11.10;100.00;102316.69;5071840;28;20052;-85
2022/04/16 10:46:46;;;;;;;55.63;20.15;;;;;;;11.38;100.00;102332.84;5072939;28;20053;-85
2022/04/16 10:49:18;;;;;;;63.30;21.02;;;;;;;11.24;100.00;102340.03;5072026;28;20047;-85
2022/04/16 10:51:46;;;;;;;55.00;19.92;;;;;;;11.18;100.00;102337.53;5072451;28;20080;-85
2022/04/16 10:54:24;;;;;;;44.17;19.92;;;;;;;11.20;100.00;102313.00;5072849;28;20054;-84
2022/04/16 10:56:52;;;;;;;39.63;15.90;;;;;;;11.33;100.00;102307.56;5066788;28;20049;-85
2022/04/16 10:59:44;;;;;;;54.00;19.13;;;;;;;11.12;100.00;102307.03;5072881;28;20041;-85
2022/04/16 11:02:34;;;;;;;54.35;21.30;;;;;;;10.69;100.00;102318.06;5070728;28;20059;-85
2022/04/16 11:05:03;;;;;;;59.67;22.48;;;;;;;10.93;100.00;102321.28;5060928;28;20052;-85
2022/04/16 11:07:35;;;;;;;51.88;20.63;;;;;;;10.60;100.00;102315.59;5070307;28;20176;-85
2022/04/16 11:10:04;;;;;;;50.67;20.50;;;;;;;11.21;100.00;102314.75;5072963;28;20048;-87
2022/04/16 11:12:31;;;;;;;62.70;25.73;;;;;;;10.99;100.00;102314.19;5068835;28;20490;-85
2022/04/16 11:14:59;;;;;;;41.03;18.05;;;;;;;10.64;100.00;102312.91;5064192;28;20059;-84
2022/04/16 11:17:27;;;;;;;40.53;17.90;;;;;;;10.85;100.00;102315.25;5057959;28;20037;-85
2022/04/16 11:20:02;;;;;;;58.58;23.75;;;;;;;10.75;100.00;102310.16;5072980;28;20045;-85
2022/04/16 11:22:29;;;;;;;41.60;19.95;;;;;;;10.63;100.00;102287.59;5055585;28;20051;-85
2022/04/16 11:24:58;;;;;;;37.35;22.17;;;;;;;10.82;100.00;102296.09;5062925;28;20123;-84
2022/04/16 11:36:04;;;;;;;30.23;17.10;;;;;;;11.55;100.00;102282.72;5070466;28;20059;-85